createdAt,value
2023-05-06T00:00:43.109Z,52.61
2023-05-06T00:05:49.904Z,54.37
2023-05-06T00:11:04.225Z,54.20
2023-05-06T00:16:10.186Z,52.42
2023-05-06T00:21:14.944Z,52.87
2023-05-06T00:26:34.597Z,53.23
2023-05-06T00:31:48.357Z,54.18
2023-05-06T00:36:56.531Z,54.14
2023-05-06T00:42:05.096Z,53.84
2023-05-06T00:47:17.804Z,53.67
2023-05-06T00:52:24.527Z,54.29
2023-05-06T00:57:29.142Z,53.51
2023-05-06T01:03:22.568Z,53.55
2023-05-06T01:08:31.367Z,53.82
2023-05-06T01:14:22.990Z,55.18
2023-05-06T01:19:46.723Z,53.69
2023-05-06T01:24:52.248Z,54.03
2023-05-06T01:30:02.579Z,53.95
2023-05-06T01:35:16.301Z,53.90
2023-05-06T01:40:33.610Z,54.14
2023-05-06T01:45:38.887Z,54.30
2023-05-06T01:50:54.030Z,54.34
2023-05-06T01:56:28.977Z,53.40
2023-05-06T02:01:35.986Z,54.22
2023-05-06T02:06:53.927Z,52.98
2023-05-06T02:12:09.390Z,53.01
2023-05-06T02:18:02.276Z,51.64
2023-05-06T02:23:14.942Z,52.86
2023-05-06T02:28:21.643Z,51.62
2023-05-06T02:33:28.071Z,50.87
2023-05-06T02:39:04.777Z,50.84
2023-05-06T02:44:11.060Z,50.10
2023-05-06T02:50:06.915Z,50.74
2023-05-06T02:55:15.507Z,51.10
2023-05-06T03:00:32.063Z,51.12
2023-05-06T03:05:48.801Z,49.91
2023-05-06T03:11:02.974Z,50.94
2023-05-06T03:16:16.929Z,51.17
2023-05-06T03:21:27.059Z,51.85
2023-05-06T03:26:35.452Z,50.73
2023-05-06T03:31:43.380Z,50.08
2023-05-06T03:36:50.085Z,50.64
2023-05-06T03:41:59.296Z,50.80
2023-05-06T03:47:07.127Z,50.05
2023-05-06T03:52:14.120Z,50.18
2023-05-06T03:57:18.654Z,51.59
2023-05-06T04:02:34.345Z,51.61
2023-05-06T04:07:39.606Z,50.86
2023-05-06T04:12:43.626Z,51.14
2023-05-06T04:17:55.848Z,50.82
2023-05-06T04:23:03.292Z,51.58
2023-05-06T04:28:07.580Z,51.35
2023-05-06T04:33:14.689Z,52.64
2023-05-06T04:38:19.393Z,53.15
2023-05-06T04:43:24.812Z,52.81
2023-05-06T04:54:27.909Z,53.61
2023-05-06T04:59:32.008Z,52.15
2023-05-06T05:04:42.640Z,53.48
2023-05-06T05:09:50.728Z,52.04
2023-05-06T05:15:04.871Z,52.04
2023-05-06T05:20:11.587Z,51.48
2023-05-06T05:25:15.995Z,51.46
2023-05-06T05:30:33.691Z,50.32
2023-05-06T05:35:41.205Z,51.20
2023-05-06T05:40:46.621Z,51.25
2023-05-06T05:51:19.833Z,51.84
2023-05-06T05:56:24.123Z,52.08
2023-05-06T06:01:28.343Z,51.53
2023-05-06T06:06:33.991Z,52.19
2023-05-06T06:11:38.915Z,52.18
2023-05-06T06:16:43.413Z,51.26
2023-05-06T06:21:48.440Z,50.20
2023-05-06T06:26:52.799Z,51.33
2023-05-06T06:31:58.082Z,49.99
2023-05-06T06:37:02.962Z,51.23
2023-05-06T06:42:07.158Z,51.11
2023-05-06T06:47:23.731Z,49.66
2023-05-06T06:52:28.585Z,48.68
2023-05-06T06:57:31.988Z,50.29
2023-05-06T07:02:35.427Z,48.68
2023-05-06T07:07:40.638Z,48.09
2023-05-06T07:12:44.185Z,47.75
2023-05-06T07:17:47.704Z,46.43
2023-05-06T07:22:52.860Z,46.73
2023-05-06T07:27:56.983Z,46.66
2023-05-06T07:33:01.142Z,45.22
2023-05-06T07:38:06.354Z,45.79
2023-05-06T07:43:09.931Z,45.63
2023-05-06T07:48:13.464Z,45.49
2023-05-06T07:53:18.673Z,46.62
2023-05-06T07:58:22.235Z,43.20
2023-05-06T08:03:25.920Z,46.20
2023-05-06T08:08:30.937Z,44.83
2023-05-06T08:13:34.484Z,43.09
2023-05-06T08:18:37.887Z,44.73
2023-05-06T08:23:42.819Z,44.33
2023-05-06T08:28:46.728Z,44.63
2023-05-06T08:33:51.523Z,42.49
2023-05-06T08:38:57.344Z,42.68
2023-05-06T08:44:03.088Z,40.26
2023-05-06T08:49:07.031Z,40.02
2023-05-06T08:54:12.842Z,38.50
2023-05-06T08:59:16.379Z,40.48
2023-05-06T09:04:20.637Z,41.20
2023-05-06T09:09:25.670Z,41.20
2023-05-06T09:14:29.164Z,40.34
2023-05-06T09:19:32.748Z,40.63
2023-05-06T09:24:38.078Z,37.92
2023-05-06T09:30:00.788Z,39.71
2023-05-06T09:35:04.787Z,38.65
2023-05-06T09:40:10.928Z,40.30
2023-05-06T09:45:17.003Z,38.85
2023-05-06T09:50:22.381Z,43.42
2023-05-06T09:55:28.755Z,40.64
2023-05-06T10:00:33.070Z,40.55
2023-05-06T10:05:37.599Z,38.13
2023-05-06T10:10:42.939Z,37.59
2023-05-06T10:15:47.809Z,37.19
2023-05-06T10:20:53.595Z,35.84
2023-05-06T10:25:59.120Z,39.35
2023-05-06T10:31:04.777Z,40.71
2023-05-06T10:36:15.523Z,41.65
2023-05-06T10:41:22.153Z,36.85
2023-05-06T10:46:26.387Z,35.61
2023-05-06T10:51:29.993Z,39.32
2023-05-06T10:56:36.667Z,35.28
2023-05-06T11:01:41.187Z,36.56
2023-05-06T11:06:47.036Z,36.71
2023-05-06T11:11:54.614Z,33.93
2023-05-06T11:16:59.200Z,35.90
2023-05-06T11:22:04.047Z,37.56
2023-05-06T11:27:09.328Z,34.56
2023-05-06T11:32:23.909Z,32.74
2023-05-06T11:37:28.887Z,30.91
2023-05-06T11:42:33.736Z,33.55
2023-05-06T11:47:37.127Z,35.92
2023-05-06T11:52:40.871Z,32.66
2023-05-06T11:57:48.849Z,35.04
2023-05-06T12:02:56.709Z,35.09
2023-05-06T12:08:00.511Z,33.52
2023-05-06T12:13:07.059Z,35.03
2023-05-06T12:18:14.563Z,34.64
2023-05-06T12:23:18.297Z,35.94
2023-05-06T12:28:24.028Z,33.70
2023-05-06T12:33:27.737Z,33.87
2023-05-06T12:38:32.705Z,36.90
2023-05-06T12:43:37.428Z,34.81
2023-05-06T12:48:42.758Z,34.72
2023-05-06T12:53:46.326Z,32.66
2023-05-06T12:59:04.525Z,32.51
2023-05-06T13:04:07.983Z,36.12
2023-05-06T13:09:13.080Z,35.62
2023-05-06T13:14:19.250Z,34.43
2023-05-06T13:19:32.489Z,34.01
2023-05-06T13:24:36.626Z,34.97
2023-05-06T13:29:41.595Z,34.34
2023-05-06T13:34:44.984Z,32.59
2023-05-06T13:39:48.635Z,32.33
2023-05-06T13:44:53.320Z,31.39
2023-05-06T13:49:57.294Z,30.41
2023-05-06T13:55:00.888Z,29.38
2023-05-06T14:00:07.976Z,28.47
2023-05-06T14:05:11.522Z,27.48
2023-05-06T14:10:15.888Z,27.98
2023-05-06T14:15:21.133Z,28.04
2023-05-06T14:20:24.784Z,27.58
2023-05-06T14:25:28.251Z,28.23
2023-05-06T14:30:34.209Z,26.25
2023-05-06T14:35:41.097Z,26.49
2023-05-06T14:40:44.453Z,24.87
2023-05-06T14:45:49.145Z,27.56
2023-05-06T14:50:53.026Z,28.65
2023-05-06T14:55:57.372Z,27.98
2023-05-06T15:01:02.232Z,27.19
2023-05-06T15:06:05.994Z,26.36
2023-05-06T15:11:09.819Z,26.12
2023-05-06T15:16:14.537Z,28.27
2023-05-06T15:21:17.934Z,27.64
2023-05-06T15:26:21.424Z,29.02
2023-05-06T15:31:26.773Z,28.63
2023-05-06T15:36:31.186Z,30.05
2023-05-06T15:41:36.046Z,30.06
2023-05-06T15:46:41.152Z,30.28
2023-05-06T15:51:44.725Z,30.78
2023-05-06T15:56:48.445Z,30.90
2023-05-06T16:06:59.638Z,30.78
2023-05-06T16:12:03.119Z,31.32
2023-05-06T16:17:07.924Z,30.65
2023-05-06T16:22:11.700Z,30.24
2023-05-06T16:27:15.983Z,29.24
2023-05-06T16:32:20.750Z,31.67
2023-05-06T16:37:24.212Z,30.38
2023-05-06T16:42:27.703Z,29.60
2023-05-06T16:47:33.184Z,31.79
2023-05-06T16:52:39.232Z,31.48
2023-05-06T16:57:44.257Z,33.88
2023-05-06T17:02:49.175Z,37.09
2023-05-06T17:07:52.875Z,39.27
2023-05-06T17:12:56.873Z,38.93
2023-05-06T17:18:02.542Z,38.72
2023-05-06T17:23:06.480Z,40.16
2023-05-06T17:28:09.816Z,41.67
2023-05-06T17:33:14.707Z,41.34
2023-05-06T17:38:18.440Z,42.28
2023-05-06T17:43:22.903Z,43.17
2023-05-06T17:48:27.875Z,42.26
2023-05-06T17:53:33.029Z,42.63
2023-05-06T17:58:36.809Z,44.04
2023-05-06T18:03:43.804Z,43.56
2023-05-06T18:08:47.242Z,43.17
2023-05-06T18:13:50.668Z,44.21
2023-05-06T18:18:55.791Z,44.74
2023-05-06T18:24:10.301Z,45.41
2023-05-06T18:29:18.928Z,45.09
2023-05-06T18:34:23.877Z,45.82
2023-05-06T18:39:27.419Z,45.67
2023-05-06T18:44:30.970Z,45.86
2023-05-06T18:49:36.419Z,45.99
2023-05-06T18:54:40.058Z,47.12
2023-05-06T18:59:43.706Z,46.59
2023-05-06T19:04:48.481Z,47.53
2023-05-06T19:09:51.901Z,46.86
2023-05-06T19:14:55.645Z,47.28
2023-05-06T19:20:00.682Z,47.06
2023-05-06T19:25:04.534Z,47.31
2023-05-06T19:30:09.626Z,48.51
2023-05-06T19:35:16.830Z,48.85
2023-05-06T19:40:20.623Z,48.43
2023-05-06T19:45:24.142Z,49.67
2023-05-06T19:50:29.251Z,47.83
2023-05-06T19:55:33.277Z,47.50
2023-05-06T20:00:36.922Z,47.44
2023-05-06T20:05:42.492Z,50.03
2023-05-06T20:10:45.912Z,49.32
2023-05-06T20:15:49.868Z,48.48
2023-05-06T20:20:54.946Z,49.07
2023-05-06T20:25:58.338Z,48.79
2023-05-06T20:31:01.865Z,49.80
2023-05-06T20:36:07.591Z,48.12
2023-05-06T20:41:11.301Z,48.57
2023-05-06T20:46:14.826Z,49.41
2023-05-06T20:51:20.175Z,48.56
2023-05-06T20:56:25.352Z,48.73
2023-05-06T21:01:30.795Z,48.87
2023-05-06T21:06:35.709Z,49.39
2023-05-06T21:11:49.272Z,49.22
2023-05-06T21:16:53.187Z,48.89
2023-05-06T21:21:58.090Z,48.04
2023-05-06T21:27:01.844Z,47.28
2023-05-06T21:32:05.448Z,48.82
2023-05-06T21:37:10.372Z,48.88
2023-05-06T21:42:14.380Z,49.40
2023-05-06T21:47:18.083Z,49.06
2023-05-06T21:52:23.120Z,48.57
2023-05-06T21:57:26.742Z,50.08
2023-05-06T22:02:30.334Z,48.25
2023-05-06T22:07:35.697Z,48.91
2023-05-06T22:12:39.371Z,48.87
2023-05-06T22:17:43.068Z,48.45
2023-05-06T22:22:47.923Z,49.40
2023-05-06T22:27:51.315Z,48.77
2023-05-06T22:32:54.723Z,48.41
2023-05-06T22:37:59.734Z,49.08
2023-05-06T22:43:03.371Z,49.88
2023-05-06T22:48:07.525Z,49.92
2023-05-06T22:53:15.494Z,49.54
2023-05-06T22:58:19.133Z,48.75
2023-05-06T23:03:23.270Z,49.89
2023-05-06T23:08:28.294Z,49.40
2023-05-06T23:13:36.136Z,50.10
2023-05-06T23:18:39.652Z,51.00
2023-05-06T23:23:44.688Z,50.03
2023-05-06T23:28:48.046Z,50.32
2023-05-06T23:33:51.357Z,50.58
2023-05-06T23:38:56.622Z,49.65
2023-05-06T23:44:00.261Z,50.64
2023-05-06T23:49:05.297Z,50.07
2023-05-06T23:54:10.813Z,49.79
2023-05-06T23:59:14.427Z,50.10
